< < Back
Terminal Aerodrome Forecast


Current Version              Previous Versions:   1  2  3  4  5  6  7  8  9  

Terminal Aerodrome Forecast

317
FTUS44 KMOB 011100
TAFPNS
TAF
KPNS 011134Z 0112/0212 06004KT P6SM FEW021 FEW250
     FM011500 16010KT P6SM VCSH SCT030 SCT250
     FM020100 19008KT P6SM SCT250=

Latest METAR

428
SAUS70 KWBC 011100 RRJ
MTRPNS
METAR KPNS 011053Z 06004KT 10SM FEW021 25/24 A3005 RMK AO2 SLP178
T02500244


USA.gov is the U.S. government's official web portal to all federal, state and local government web resources and services.